createdAt,value
2017-11-28T00:00:27.037Z,4.60
2017-11-28T00:02:55.141Z,4.50
2017-11-28T00:05:23.995Z,4.60
2017-11-28T00:07:52.063Z,4.60
2017-11-28T00:10:20.139Z,4.60
2017-11-28T00:12:48.205Z,4.60
2017-11-28T00:15:16.277Z,4.60
2017-11-28T00:17:44.350Z,4.60
2017-11-28T00:20:12.425Z,4.50
2017-11-28T00:22:40.495Z,4.50
2017-11-28T00:25:08.586Z,4.60
2017-11-28T00:27:36.657Z,4.60
2017-11-28T00:30:04.736Z,4.50
2017-11-28T00:32:32.797Z,4.60
2017-11-28T00:35:00.873Z,4.50
2017-11-28T00:37:28.940Z,4.50
2017-11-28T00:39:57.026Z,4.50
2017-11-28T00:42:25.098Z,4.60
2017-11-28T00:44:53.169Z,4.60
2017-11-28T00:47:21.249Z,4.60
2017-11-28T00:49:50.085Z,4.50
2017-11-28T00:52:18.268Z,4.50
2017-11-28T00:54:46.332Z,4.60
2017-11-28T00:57:15.175Z,4.60
2017-11-28T00:59:43.233Z,4.60
2017-11-28T01:02:11.306Z,4.60
2017-11-28T01:04:39.375Z,4.60
2017-11-28T01:07:07.453Z,4.60
2017-11-28T01:09:35.535Z,4.70
2017-11-28T01:12:03.637Z,4.70
2017-11-28T01:14:31.702Z,4.60
2017-11-28T01:17:00.541Z,4.70
2017-11-28T01:19:28.626Z,4.70
2017-11-28T01:21:56.706Z,4.70
2017-11-28T01:24:24.782Z,4.60
2017-11-28T01:26:52.886Z,4.60
2017-11-28T01:29:20.959Z,4.60
2017-11-28T01:31:49.028Z,4.70
2017-11-28T01:34:17.113Z,4.00
2017-11-28T01:36:45.193Z,4.70
2017-11-28T01:39:14.039Z,4.60
2017-11-28T01:41:42.136Z,4.60
2017-11-28T01:44:10.977Z,4.70
2017-11-28T01:46:39.264Z,4.70
2017-11-28T01:49:08.136Z,4.70
2017-11-28T01:51:36.209Z,4.70
2017-11-28T01:54:04.286Z,4.70
2017-11-28T01:56:32.360Z,4.70
2017-11-28T01:59:00.441Z,4.70
2017-11-28T02:01:28.526Z,4.70
2017-11-28T02:03:58.599Z,4.70
2017-11-28T02:06:26.670Z,4.70
2017-11-28T02:08:54.753Z,4.70
2017-11-28T02:11:22.822Z,4.70
2017-11-28T02:13:50.910Z,4.70
2017-11-28T02:16:18.978Z,4.70
2017-11-28T02:18:47.065Z,4.70
2017-11-28T02:21:15.125Z,4.70
2017-11-28T02:23:43.204Z,4.70
2017-11-28T02:26:11.277Z,4.70
2017-11-28T02:28:39.366Z,4.70
2017-11-28T02:31:07.437Z,4.70
2017-11-28T02:33:35.510Z,4.70
2017-11-28T02:36:03.597Z,4.70
2017-11-28T02:38:32.436Z,4.70
2017-11-28T02:41:14.170Z,4.70
2017-11-28T02:43:43.037Z,4.70
2017-11-28T02:46:12.621Z,4.70
2017-11-28T02:48:40.701Z,4.70
2017-11-28T02:51:13.906Z,4.60
2017-11-28T02:53:41.974Z,4.70
2017-11-28T02:56:11.931Z,4.70
2017-11-28T02:58:55.922Z,4.70
2017-11-28T03:04:23.941Z,4.70
2017-11-28T03:06:52.021Z,4.70
2017-11-28T03:12:33.793Z,4.70
2017-11-28T03:15:10.070Z,4.70
2017-11-28T03:17:38.153Z,4.70
2017-11-28T03:20:17.652Z,4.70
2017-11-28T03:26:02.989Z,4.80
2017-11-28T03:31:32.283Z,4.70
2017-11-28T03:37:00.226Z,4.70
2017-11-28T03:39:28.297Z,4.70
2017-11-28T03:41:56.382Z,4.70
2017-11-28T03:44:55.834Z,4.70
2017-11-28T03:47:23.909Z,4.70
2017-11-28T03:49:52.746Z,4.70
2017-11-28T03:52:21.629Z,4.70
2017-11-28T03:54:49.704Z,4.70
2017-11-28T03:57:17.786Z,4.70
2017-11-28T03:59:46.628Z,4.70
2017-11-28T04:02:15.474Z,4.70
2017-11-28T04:04:44.309Z,4.70
2017-11-28T04:07:12.394Z,4.70
2017-11-28T04:09:40.462Z,4.70
2017-11-28T04:12:08.547Z,4.70
2017-11-28T04:14:36.610Z,4.70
2017-11-28T04:17:04.706Z,4.70
2017-11-28T04:19:33.719Z,4.80
2017-11-28T04:22:02.668Z,4.80
2017-11-28T04:24:30.754Z,4.70
2017-11-28T04:26:58.863Z,4.70
2017-11-28T04:29:27.757Z,4.80
2017-11-28T04:31:56.604Z,4.70
2017-11-28T04:34:26.474Z,4.70
2017-11-28T04:36:54.614Z,4.70
2017-11-28T04:39:23.478Z,4.70
2017-11-28T04:41:51.578Z,4.70
2017-11-28T04:44:20.434Z,4.70
2017-11-28T04:46:49.541Z,4.70
2017-11-28T04:49:17.609Z,4.70
2017-11-28T04:51:45.744Z,4.80
2017-11-28T04:54:13.811Z,4.70
2017-11-28T04:56:46.330Z,4.70
2017-11-28T04:59:14.392Z,4.70
2017-11-28T05:01:42.458Z,4.70
2017-11-28T05:04:10.533Z,4.70
2017-11-28T05:06:38.604Z,4.70
2017-11-28T05:09:06.689Z,4.70
2017-11-28T05:11:34.760Z,4.70
2017-11-28T05:14:02.842Z,4.70
2017-11-28T05:16:30.929Z,4.70
2017-11-28T05:18:59.022Z,4.80
2017-11-28T05:21:27.122Z,4.70
2017-11-28T05:23:55.196Z,4.80
2017-11-28T05:26:23.269Z,4.70
2017-11-28T05:28:52.097Z,4.70
2017-11-28T05:31:20.201Z,4.70
2017-11-28T05:33:48.237Z,4.80
2017-11-28T05:36:16.308Z,4.70
2017-11-28T05:38:44.385Z,4.80
2017-11-28T05:41:12.467Z,4.80
2017-11-28T05:43:40.529Z,4.80
2017-11-28T05:46:08.604Z,4.80
2017-11-28T05:48:36.672Z,4.80
2017-11-28T05:51:04.741Z,4.80
2017-11-28T05:53:47.689Z,4.70
2017-11-28T05:56:16.525Z,4.80
2017-11-28T05:58:44.606Z,4.80
2017-11-28T06:01:13.617Z,4.80
2017-11-28T06:03:41.680Z,4.80
2017-11-28T06:06:09.753Z,4.80
2017-11-28T06:08:37.876Z,4.80
2017-11-28T06:11:09.584Z,4.80
2017-11-28T06:13:37.654Z,4.80
2017-11-28T06:16:05.725Z,4.80
2017-11-28T06:18:33.793Z,4.80
2017-11-28T06:21:01.881Z,4.90
2017-11-28T06:23:29.945Z,4.80
2017-11-28T06:25:58.013Z,4.90
2017-11-28T06:28:26.117Z,4.90
2017-11-28T06:30:54.193Z,5.00
2017-11-28T06:33:23.025Z,4.90
2017-11-28T06:35:51.112Z,4.90
2017-11-28T06:38:19.171Z,4.90
2017-11-28T06:40:47.245Z,5.00
2017-11-28T06:43:15.316Z,5.00
2017-11-28T06:45:43.390Z,5.00
2017-11-28T06:48:12.218Z,5.00
2017-11-28T06:50:40.362Z,4.90
2017-11-28T06:53:08.456Z,5.00
2017-11-28T06:55:36.533Z,5.00
2017-11-28T06:58:04.609Z,5.00
2017-11-28T07:00:32.683Z,5.10
2017-11-28T07:03:00.765Z,5.10
2017-11-28T07:05:28.829Z,5.10
2017-11-28T07:07:56.905Z,5.10
2017-11-28T07:10:24.977Z,5.10
2017-11-28T07:12:53.098Z,5.10
2017-11-28T07:15:21.168Z,5.10
2017-11-28T07:17:49.254Z,5.10
2017-11-28T07:20:17.329Z,5.10
2017-11-28T07:22:45.412Z,5.10
2017-11-28T07:25:13.480Z,5.10
2017-11-28T07:27:41.553Z,5.10
2017-11-28T07:30:09.625Z,5.10
2017-11-28T07:32:37.740Z,5.20
2017-11-28T07:35:06.567Z,5.10
2017-11-28T07:37:34.670Z,5.10
2017-11-28T07:40:02.740Z,5.20
2017-11-28T07:42:30.828Z,5.20
2017-11-28T07:44:58.893Z,5.20
2017-11-28T07:47:27.494Z,5.30
2017-11-28T07:49:55.564Z,5.20
2017-11-28T07:52:23.640Z,5.20
2017-11-28T07:54:51.697Z,5.20
2017-11-28T07:57:19.768Z,5.20
2017-11-28T07:59:47.840Z,5.20
2017-11-28T08:02:15.930Z,5.20
2017-11-28T08:04:43.998Z,5.20
2017-11-28T08:07:12.068Z,5.20
2017-11-28T08:09:40.129Z,5.20
2017-11-28T08:12:08.196Z,5.20
2017-11-28T08:14:36.275Z,5.20
2017-11-28T08:17:04.362Z,5.20
2017-11-28T08:19:32.416Z,5.20
2017-11-28T08:22:00.495Z,5.20
2017-11-28T08:24:28.578Z,5.20
2017-11-28T08:26:57.433Z,5.30
2017-11-28T08:29:25.512Z,5.30
2017-11-28T08:31:53.594Z,5.30
2017-11-28T08:34:21.659Z,5.30
2017-11-28T08:36:49.729Z,5.30
2017-11-28T08:39:17.792Z,5.40
2017-11-28T08:41:45.876Z,5.40
2017-11-28T08:44:13.938Z,5.40
2017-11-28T08:46:42.044Z,5.40
2017-11-28T08:49:10.121Z,5.40
2017-11-28T08:51:38.967Z,5.40
2017-11-28T08:54:07.045Z,5.40
2017-11-28T08:56:35.097Z,5.40
2017-11-28T08:59:03.177Z,5.40
2017-11-28T09:01:31.241Z,5.40
2017-11-28T09:04:00.088Z,5.40
2017-11-28T09:06:28.924Z,5.40
2017-11-28T09:08:57.006Z,5.40
2017-11-28T09:11:25.833Z,5.40
2017-11-28T09:13:53.910Z,5.40
2017-11-28T09:16:22.758Z,5.50
2017-11-28T09:18:51.605Z,5.50
2017-11-28T09:21:20.478Z,5.50
2017-11-28T09:23:48.536Z,5.50
2017-11-28T09:26:16.638Z,5.50
2017-11-28T09:28:45.468Z,5.50
2017-11-28T09:31:13.539Z,5.50
2017-11-28T09:33:42.593Z,5.50
2017-11-28T09:36:10.669Z,5.50
2017-11-28T09:38:39.501Z,5.60
2017-11-28T09:41:07.581Z,5.50
2017-11-28T09:43:35.644Z,5.60
2017-11-28T09:46:03.713Z,5.60
2017-11-28T09:48:31.777Z,5.60
2017-11-28T09:50:59.853Z,5.60
2017-11-28T09:53:28.693Z,5.60
2017-11-28T09:55:56.762Z,5.60
2017-11-28T09:58:24.837Z,5.60
2017-11-28T10:00:52.893Z,5.70
2017-11-28T10:03:20.965Z,5.70
2017-11-28T10:05:49.027Z,5.70
2017-11-28T10:08:17.099Z,5.60
2017-11-28T10:10:45.161Z,5.60
2017-11-28T10:13:13.239Z,5.60
2017-11-28T10:15:41.313Z,5.60
2017-11-28T10:18:09.399Z,5.60
2017-11-28T10:20:37.486Z,5.60
2017-11-28T10:23:05.557Z,5.60
2017-11-28T10:25:35.114Z,5.70
2017-11-28T10:28:03.193Z,5.70
2017-11-28T10:30:31.317Z,5.70
2017-11-28T10:32:59.353Z,5.70
2017-11-28T10:35:27.422Z,5.70
2017-11-28T10:37:55.500Z,5.70
2017-11-28T10:40:23.562Z,5.80
2017-11-28T10:42:51.637Z,5.80
2017-11-28T10:45:19.709Z,5.80
2017-11-28T10:47:47.797Z,5.80
2017-11-28T10:50:15.853Z,5.70
2017-11-28T10:52:43.917Z,5.70
2017-11-28T10:55:11.996Z,5.80
2017-11-28T10:57:40.073Z,5.80
2017-11-28T11:00:08.165Z,5.80
2017-11-28T11:02:36.233Z,5.80
2017-11-28T11:05:04.311Z,5.80
2017-11-28T11:07:32.377Z,5.80
2017-11-28T11:10:00.449Z,5.90
2017-11-28T11:12:28.521Z,5.80
2017-11-28T11:14:56.613Z,5.80
2017-11-28T11:17:25.441Z,5.80
2017-11-28T11:19:54.277Z,5.80
2017-11-28T11:22:22.362Z,5.90
2017-11-28T11:24:51.205Z,5.90
2017-11-28T11:27:19.281Z,5.90
2017-11-28T11:29:47.356Z,5.90
2017-11-28T11:32:15.421Z,5.90
2017-11-28T11:34:43.496Z,5.90
2017-11-28T11:37:11.577Z,5.90
2017-11-28T11:39:39.642Z,5.90
2017-11-28T11:42:07.720Z,6.00
2017-11-28T11:44:35.803Z,5.90
2017-11-28T11:47:03.875Z,6.00
2017-11-28T11:49:31.953Z,5.90
2017-11-28T11:52:00.046Z,5.90
2017-11-28T11:54:28.108Z,6.00
2017-11-28T11:56:56.186Z,6.10
2017-11-28T11:59:24.257Z,6.10
2017-11-28T12:01:52.339Z,6.10
2017-11-28T12:04:21.189Z,6.20
2017-11-28T12:06:49.281Z,6.20
2017-11-28T12:09:17.332Z,6.20
2017-11-28T12:11:45.427Z,6.30
2017-11-28T12:14:13.505Z,6.30
2017-11-28T12:16:41.564Z,6.10
2017-11-28T12:19:09.640Z,6.20
2017-11-28T12:21:37.710Z,6.30
2017-11-28T12:24:05.786Z,6.20
2017-11-28T12:26:33.853Z,6.20
2017-11-28T12:29:01.947Z,6.10
2017-11-28T12:31:30.002Z,6.10
2017-11-28T12:33:58.072Z,6.20
2017-11-28T12:36:26.140Z,6.10
2017-11-28T12:38:54.217Z,6.10
2017-11-28T12:41:22.289Z,6.00
2017-11-28T12:43:50.356Z,6.00
2017-11-28T12:46:18.433Z,6.10
2017-11-28T12:48:46.508Z,6.00
2017-11-28T12:51:14.568Z,6.10
2017-11-28T12:53:42.674Z,6.10
2017-11-28T12:56:11.510Z,6.10
2017-11-28T12:58:39.585Z,6.00
2017-11-28T13:01:07.650Z,6.10
2017-11-28T13:03:35.722Z,6.20
2017-11-28T13:06:03.788Z,6.20
2017-11-28T13:08:31.871Z,6.20
2017-11-28T13:10:59.938Z,6.10
2017-11-28T13:13:28.766Z,6.10
2017-11-28T13:15:56.833Z,6.10
2017-11-28T13:18:24.909Z,6.10
2017-11-28T13:20:52.991Z,6.00
2017-11-28T13:23:21.073Z,6.00
2017-11-28T13:25:49.966Z,6.10
2017-11-28T13:28:18.097Z,6.10
2017-11-28T13:30:46.169Z,6.20
2017-11-28T13:33:14.258Z,6.20
2017-11-28T13:35:43.361Z,6.30
2017-11-28T13:38:11.426Z,6.30
2017-11-28T13:40:39.500Z,6.30
2017-11-28T13:43:07.568Z,6.30
2017-11-28T13:45:35.657Z,6.30
2017-11-28T13:48:03.716Z,6.30
2017-11-28T13:50:31.800Z,6.30
2017-11-28T13:52:59.879Z,6.40
2017-11-28T13:55:28.721Z,6.40
2017-11-28T13:57:56.795Z,6.30
2017-11-28T14:00:24.868Z,6.30
2017-11-28T14:02:52.939Z,6.30
2017-11-28T14:05:21.021Z,6.30
2017-11-28T14:07:49.093Z,6.30
2017-11-28T14:10:17.178Z,6.30
2017-11-28T14:12:45.256Z,6.30
2017-11-28T14:15:13.329Z,6.30
2017-11-28T14:17:41.412Z,6.30
2017-11-28T14:20:12.352Z,6.30
2017-11-28T14:22:51.040Z,6.30
2017-11-28T14:28:25.592Z,6.30
2017-11-28T14:30:59.257Z,6.30
2017-11-28T14:33:27.342Z,6.30
2017-11-28T14:39:01.054Z,6.20
2017-11-28T14:41:29.120Z,6.10
2017-11-28T14:43:58.001Z,6.20
2017-11-28T14:46:26.848Z,6.20
2017-11-28T14:48:54.931Z,6.20
2017-11-28T14:51:28.551Z,6.30
2017-11-28T14:54:02.852Z,6.30
2017-11-28T14:56:33.917Z,6.20
2017-11-28T14:59:08.460Z,6.30
2017-11-28T15:01:41.902Z,6.20
2017-11-28T15:07:18.173Z,6.30
2017-11-28T15:09:56.169Z,6.30
2017-11-28T15:12:31.773Z,6.20
2017-11-28T15:18:14.678Z,6.10
2017-11-28T15:20:58.447Z,6.10
2017-11-28T15:23:27.399Z,6.00
2017-11-28T15:25:56.328Z,6.00
2017-11-28T15:28:25.783Z,6.00
2017-11-28T15:30:53.857Z,6.00
2017-11-28T15:33:21.929Z,6.00
2017-11-28T15:35:50.161Z,6.00
2017-11-28T15:38:18.220Z,6.10
2017-11-28T15:40:46.292Z,6.00
2017-11-28T15:43:14.367Z,6.00
2017-11-28T15:45:42.441Z,5.90
2017-11-28T15:48:10.589Z,5.90
2017-11-28T15:50:38.656Z,5.90
2017-11-28T15:53:06.720Z,5.80
2017-11-28T15:55:34.808Z,5.80
2017-11-28T15:58:02.958Z,5.80
2017-11-28T16:00:31.037Z,5.70
2017-11-28T16:02:59.122Z,5.70
2017-11-28T16:05:27.271Z,5.70
2017-11-28T16:07:55.338Z,5.80
2017-11-28T16:10:23.416Z,5.80
2017-11-28T16:12:52.342Z,5.80
2017-11-28T16:15:20.409Z,5.80
2017-11-28T16:17:48.477Z,5.90
2017-11-28T16:20:16.576Z,5.80
2017-11-28T16:22:44.645Z,5.80
2017-11-28T16:25:12.721Z,5.90
2017-11-28T16:27:40.796Z,5.80
2017-11-28T16:30:08.901Z,5.90
2017-11-28T16:32:37.130Z,5.80
2017-11-28T16:35:05.213Z,5.80
2017-11-28T16:37:33.293Z,5.80
2017-11-28T16:40:02.125Z,5.70
2017-11-28T16:42:30.196Z,5.70
2017-11-28T16:44:58.258Z,5.60
2017-11-28T16:47:26.321Z,5.60
2017-11-28T16:49:54.518Z,5.50
2017-11-28T16:52:22.594Z,5.60
2017-11-28T16:54:50.697Z,5.50
2017-11-28T16:57:18.774Z,5.50
2017-11-28T16:59:46.852Z,5.60
2017-11-28T17:02:14.930Z,5.70
2017-11-28T17:04:43.773Z,5.50
2017-11-28T17:07:11.858Z,5.50
2017-11-28T17:09:39.937Z,5.50
2017-11-28T17:12:08.020Z,5.40
2017-11-28T17:14:36.081Z,5.40
2017-11-28T17:17:04.153Z,5.40
2017-11-28T17:19:32.224Z,5.30
2017-11-28T17:22:00.287Z,5.10
2017-11-28T17:24:28.345Z,5.00
2017-11-28T17:26:56.415Z,5.10
2017-11-28T17:29:24.487Z,5.10
2017-11-28T17:31:52.566Z,5.00
2017-11-28T17:34:20.636Z,5.10
2017-11-28T17:36:48.707Z,5.10
2017-11-28T17:39:16.761Z,5.20
2017-11-28T17:41:44.868Z,5.20
2017-11-28T17:44:12.962Z,5.20
2017-11-28T17:46:41.033Z,5.10
2017-11-28T17:49:09.089Z,5.10
2017-11-28T17:51:37.166Z,5.10
2017-11-28T17:54:05.227Z,5.10
2017-11-28T17:56:33.334Z,5.10
2017-11-28T17:59:01.406Z,5.10
2017-11-28T18:01:29.476Z,5.20
2017-11-28T18:03:57.549Z,5.20
2017-11-28T18:06:25.608Z,5.10
2017-11-28T18:08:53.693Z,5.10
2017-11-28T18:11:21.757Z,5.20
2017-11-28T18:13:49.845Z,5.30
2017-11-28T18:16:18.269Z,5.30
2017-11-28T18:18:46.358Z,5.30
2017-11-28T18:21:14.439Z,5.20
2017-11-28T18:23:42.513Z,5.20
2017-11-28T18:26:10.581Z,5.30
2017-11-28T18:28:38.660Z,5.30
2017-11-28T18:31:06.736Z,5.30
2017-11-28T18:33:34.813Z,5.30
2017-11-28T18:36:02.881Z,5.30
2017-11-28T18:38:30.957Z,5.20
2017-11-28T18:40:59.029Z,5.10
2017-11-28T18:43:27.122Z,5.20
2017-11-28T18:45:55.969Z,5.20
2017-11-28T18:48:24.045Z,5.20
2017-11-28T18:50:52.122Z,5.20
2017-11-28T18:53:20.196Z,5.20
2017-11-28T18:55:48.263Z,5.20
2017-11-28T18:58:16.342Z,5.20
2017-11-28T19:00:44.408Z,5.20
2017-11-28T19:03:12.485Z,5.20
2017-11-28T19:05:40.578Z,5.30
2017-11-28T19:08:08.653Z,5.30
2017-11-28T19:10:36.745Z,5.30
2017-11-28T19:13:05.589Z,5.30
2017-11-28T19:15:34.000Z,5.30
2017-11-28T19:18:02.845Z,5.30
2017-11-28T19:20:30.933Z,5.30
2017-11-28T19:22:59.005Z,5.30
2017-11-28T19:25:27.101Z,5.30
2017-11-28T19:27:55.163Z,5.30
2017-11-28T19:30:23.252Z,5.30
2017-11-28T19:32:51.310Z,5.30
2017-11-28T19:35:19.390Z,5.40
2017-11-28T19:37:47.461Z,5.40
2017-11-28T19:40:15.545Z,5.50
2017-11-28T19:42:44.375Z,5.60
2017-11-28T19:45:12.450Z,5.60
2017-11-28T19:47:40.522Z,5.50
2017-11-28T19:50:08.591Z,5.50
2017-11-28T19:52:36.668Z,5.40
2017-11-28T19:55:04.745Z,5.40
2017-11-28T19:57:32.811Z,5.40
2017-11-28T20:00:00.886Z,5.40
2017-11-28T20:02:28.955Z,5.40
2017-11-28T20:04:57.793Z,5.50
2017-11-28T20:07:25.862Z,5.40
2017-11-28T20:09:53.945Z,5.50
2017-11-28T20:12:22.780Z,5.50
2017-11-28T20:14:50.858Z,5.50
2017-11-28T20:17:19.689Z,5.40
2017-11-28T20:19:47.785Z,5.30
2017-11-28T20:22:16.641Z,5.20
2017-11-28T20:24:44.727Z,5.20
2017-11-28T20:27:12.793Z,5.20
2017-11-28T20:29:40.865Z,5.20
2017-11-28T20:32:09.064Z,5.10
2017-11-28T20:34:37.908Z,5.10
2017-11-28T20:37:06.006Z,5.10
2017-11-28T20:39:34.865Z,5.10
2017-11-28T20:42:02.950Z,5.10
2017-11-28T20:44:31.304Z,5.10
2017-11-28T20:46:59.374Z,5.20
2017-11-28T20:49:33.144Z,5.10
2017-11-28T20:52:01.986Z,5.20
2017-11-28T20:54:30.102Z,5.20
2017-11-28T20:56:58.945Z,5.10
2017-11-28T20:59:27.042Z,5.10
2017-11-28T21:01:55.129Z,4.90
2017-11-28T21:04:23.983Z,4.80
2017-11-28T21:06:52.072Z,4.80
2017-11-28T21:09:20.186Z,4.90
2017-11-28T21:11:49.021Z,5.00
2017-11-28T21:14:17.097Z,5.00
2017-11-28T21:16:45.163Z,5.00
2017-11-28T21:19:13.235Z,5.00
2017-11-28T21:21:41.308Z,5.10
2017-11-28T21:24:09.392Z,5.10
2017-11-28T21:26:37.471Z,5.10
2017-11-28T21:29:05.541Z,5.10
2017-11-28T21:31:33.631Z,5.00
2017-11-28T21:34:01.684Z,5.10
2017-11-28T21:36:29.761Z,5.10
2017-11-28T21:38:57.833Z,5.00
2017-11-28T21:41:26.141Z,4.90
2017-11-28T21:43:54.982Z,5.10
2017-11-28T21:46:23.074Z,5.10
2017-11-28T21:48:51.144Z,5.00
2017-11-28T21:51:19.462Z,4.90
2017-11-28T21:53:47.529Z,4.80
2017-11-28T21:56:16.369Z,4.80
2017-11-28T21:58:44.465Z,4.80
2017-11-28T22:01:12.542Z,4.90
2017-11-28T22:03:40.627Z,4.90
2017-11-28T22:06:09.463Z,4.90
2017-11-28T22:08:37.546Z,4.90
2017-11-28T22:11:05.613Z,4.90
2017-11-28T22:13:33.694Z,4.90
2017-11-28T22:16:01.765Z,5.00
2017-11-28T22:18:29.890Z,5.00
2017-11-28T22:20:58.724Z,5.00
2017-11-28T22:23:26.820Z,5.00
2017-11-28T22:25:54.884Z,5.00
2017-11-28T22:28:22.956Z,5.00
2017-11-28T22:30:51.049Z,5.00
2017-11-28T22:33:19.120Z,5.00
2017-11-28T22:35:47.974Z,4.90
2017-11-28T22:38:16.050Z,4.90
2017-11-28T22:40:44.124Z,4.90
2017-11-28T22:43:12.232Z,4.90
2017-11-28T22:45:41.082Z,4.70
2017-11-28T22:48:09.160Z,4.70
2017-11-28T22:50:37.241Z,4.70
2017-11-28T22:53:05.325Z,4.70
2017-11-28T22:55:34.934Z,4.80
2017-11-28T22:58:03.007Z,4.80
2017-11-28T23:00:31.089Z,4.80
2017-11-28T23:02:59.934Z,4.80
2017-11-28T23:05:28.042Z,4.80
2017-11-28T23:07:56.121Z,4.90
2017-11-28T23:10:24.970Z,4.90
2017-11-28T23:12:53.052Z,4.90
2017-11-28T23:15:21.134Z,4.90
2017-11-28T23:17:49.209Z,4.90
2017-11-28T23:20:17.281Z,4.90
2017-11-28T23:22:45.370Z,4.90
2017-11-28T23:25:14.228Z,4.90
2017-11-28T23:27:42.308Z,4.90
2017-11-28T23:30:10.390Z,4.90
2017-11-28T23:32:38.465Z,4.90
2017-11-28T23:35:06.550Z,4.90
2017-11-28T23:37:34.625Z,4.90
2017-11-28T23:40:03.456Z,4.90
2017-11-28T23:42:32.298Z,4.90
2017-11-28T23:45:00.381Z,4.90
2017-11-28T23:47:30.415Z,4.80
2017-11-28T23:49:58.551Z,4.80
2017-11-28T23:52:26.631Z,4.80
2017-11-28T23:54:54.695Z,4.80
2017-11-28T23:57:22.775Z,4.80
2017-11-28T23:59:50.840Z,4.80
